createdAt,value
2022-11-17T00:01:47.094Z,14.47
2022-11-17T00:04:16.058Z,14.44
2022-11-17T00:06:45.513Z,14.41
2022-11-17T00:09:17.651Z,14.40
2022-11-17T00:12:05.920Z,14.40
2022-11-17T00:14:40.529Z,14.40
2022-11-17T00:17:11.457Z,14.40
2022-11-17T00:19:58.171Z,14.39
2022-11-17T00:22:26.324Z,14.37
2022-11-17T00:24:54.143Z,14.37
2022-11-17T00:27:21.559Z,14.35
2022-11-17T00:29:49.839Z,14.36
2022-11-17T00:32:38.111Z,14.37
2022-11-17T00:35:06.854Z,14.37
2022-11-17T00:37:38.791Z,14.39
2022-11-17T00:40:07.380Z,14.38
2022-11-17T00:42:34.757Z,14.37
2022-11-17T00:45:02.500Z,14.35
2022-11-17T00:47:29.934Z,14.33
2022-11-17T00:49:57.677Z,14.28
2022-11-17T00:52:25.075Z,14.23
2022-11-17T00:54:52.837Z,14.22
2022-11-17T00:57:20.283Z,14.22
2022-11-17T00:59:48.020Z,14.16
2022-11-17T01:02:15.531Z,14.13
2022-11-17T01:04:43.454Z,14.11
2022-11-17T01:07:10.905Z,14.04
2022-11-17T01:09:38.709Z,14.05
2022-11-17T01:12:06.499Z,14.07
2022-11-17T01:14:34.409Z,14.06
2022-11-17T01:17:01.856Z,14.04
2022-11-17T01:19:29.689Z,13.97
2022-11-17T01:21:57.088Z,13.92
2022-11-17T01:24:24.928Z,13.94
2022-11-17T01:26:52.509Z,13.82
2022-11-17T01:29:20.266Z,13.70
2022-11-17T01:31:51.596Z,13.64
2022-11-17T01:34:19.549Z,13.52
2022-11-17T01:37:05.383Z,13.54
2022-11-17T01:39:33.182Z,13.47
2022-11-17T01:42:14.097Z,13.43
2022-11-17T01:45:11.444Z,13.44
2022-11-17T01:48:00.291Z,13.51
2022-11-17T01:50:39.127Z,13.42
2022-11-17T01:53:16.413Z,13.42
2022-11-17T01:55:59.856Z,13.46
2022-11-17T01:58:36.571Z,13.52
2022-11-17T02:01:04.545Z,13.46
2022-11-17T02:03:34.725Z,13.44
2022-11-17T02:06:13.680Z,13.47
2022-11-17T02:08:46.136Z,13.56
2022-11-17T02:11:18.185Z,13.61
2022-11-17T02:13:46.290Z,13.57
2022-11-17T02:16:16.201Z,13.46
2022-11-17T02:18:45.588Z,13.40
2022-11-17T02:21:51.995Z,13.39
2022-11-17T02:24:31.149Z,13.37
2022-11-17T02:27:36.384Z,13.10
2022-11-17T02:30:12.324Z,13.03
2022-11-17T02:33:02.609Z,12.95
2022-11-17T02:35:50.032Z,12.98
2022-11-17T02:38:43.432Z,12.86
2022-11-17T02:41:27.874Z,12.76
2022-11-17T02:44:14.642Z,12.68
2022-11-17T02:46:58.785Z,12.62
2022-11-17T02:49:37.002Z,12.47
2022-11-17T02:52:06.373Z,12.47
2022-11-17T02:54:34.374Z,12.46
2022-11-17T02:57:01.975Z,12.45
2022-11-17T02:59:46.351Z,12.47
2022-11-17T03:02:44.155Z,12.51
2022-11-17T03:05:50.038Z,12.54
2022-11-17T03:08:41.022Z,12.56
2022-11-17T03:11:10.875Z,12.53
2022-11-17T03:13:56.697Z,12.58
2022-11-17T03:16:38.430Z,12.52
2022-11-17T03:19:24.672Z,12.44
2022-11-17T03:22:12.592Z,12.42
2022-11-17T03:24:55.086Z,12.42
2022-11-17T03:27:30.792Z,12.37
2022-11-17T03:30:06.374Z,12.37
2022-11-17T03:32:39.460Z,12.43
2022-11-17T03:35:18.120Z,12.41
2022-11-17T03:37:54.805Z,12.46
2022-11-17T03:40:27.891Z,12.40
2022-11-17T03:43:02.742Z,12.38
2022-11-17T03:45:39.904Z,12.30
2022-11-17T03:48:22.959Z,12.23
2022-11-17T03:51:09.327Z,12.12
2022-11-17T03:53:38.207Z,12.07
2022-11-17T03:56:46.266Z,12.05
2022-11-17T03:59:30.671Z,12.05
2022-11-17T04:01:58.883Z,12.08
2022-11-17T04:04:47.471Z,12.09
2022-11-17T04:07:41.434Z,12.04
2022-11-17T04:10:18.460Z,12.01
2022-11-17T04:13:06.306Z,11.99
2022-11-17T04:15:52.865Z,12.00
2022-11-17T04:18:22.841Z,12.09
2022-11-17T04:20:53.399Z,12.05
2022-11-17T04:23:21.512Z,12.02
2022-11-17T04:26:14.303Z,11.96
2022-11-17T04:28:48.896Z,11.98
2022-11-17T04:31:24.967Z,11.97
2022-11-17T04:34:04.421Z,12.03
2022-11-17T04:36:45.676Z,11.95
2022-11-17T04:39:15.473Z,11.93
2022-11-17T04:41:57.571Z,11.93
2022-11-17T04:44:30.556Z,11.91
2022-11-17T04:46:59.527Z,11.94
2022-11-17T04:49:27.217Z,11.90
2022-11-17T04:51:55.243Z,11.88
2022-11-17T04:54:24.801Z,11.93
2022-11-17T04:56:57.553Z,11.86
2022-11-17T04:59:30.891Z,11.74
2022-11-17T05:02:04.170Z,11.71
2022-11-17T05:04:51.970Z,11.69
2022-11-17T05:07:19.822Z,11.69
2022-11-17T05:10:06.741Z,11.64
2022-11-17T05:12:53.238Z,11.45
2022-11-17T05:15:40.782Z,11.28
2022-11-17T05:18:08.591Z,11.24
2022-11-17T05:20:35.999Z,11.26
2022-11-17T05:23:22.448Z,11.39
2022-11-17T05:25:54.045Z,11.35
2022-11-17T05:28:21.866Z,11.38
2022-11-17T05:30:49.384Z,11.45
2022-11-17T05:33:17.250Z,11.56
2022-11-17T05:35:44.665Z,11.60
2022-11-17T05:38:12.481Z,11.65
2022-11-17T05:40:39.925Z,11.70
2022-11-17T05:43:07.678Z,11.74
2022-11-17T05:45:35.197Z,11.70
2022-11-17T05:48:03.115Z,11.74
2022-11-17T05:50:30.504Z,11.62
2022-11-17T05:53:02.204Z,11.59
2022-11-17T05:55:29.720Z,11.56
2022-11-17T05:58:12.193Z,11.56
2022-11-17T06:00:41.344Z,11.37
2022-11-17T06:03:23.409Z,11.30
2022-11-17T06:05:52.664Z,11.27
2022-11-17T06:08:20.712Z,11.30
2022-11-17T06:10:48.211Z,11.37
2022-11-17T06:13:16.043Z,11.47
2022-11-17T06:15:43.507Z,11.51
2022-11-17T06:18:17.351Z,11.51
2022-11-17T06:20:51.833Z,11.33
2022-11-17T06:23:22.816Z,11.26
2022-11-17T06:25:50.560Z,11.27
2022-11-17T06:28:22.143Z,11.29
2022-11-17T06:30:50.154Z,11.17
2022-11-17T06:33:19.321Z,11.18
2022-11-17T06:35:48.149Z,11.12
2022-11-17T06:38:15.993Z,11.11
2022-11-17T06:40:43.577Z,11.19
2022-11-17T06:43:11.605Z,11.26
2022-11-17T06:45:44.446Z,11.30
2022-11-17T06:48:16.215Z,11.35
2022-11-17T06:50:44.561Z,11.35
2022-11-17T06:53:13.185Z,11.37
2022-11-17T06:55:41.885Z,11.48
2022-11-17T06:58:13.052Z,11.37
2022-11-17T07:00:40.710Z,11.31
2022-11-17T07:03:10.675Z,11.21
2022-11-17T07:05:40.257Z,11.26
2022-11-17T07:08:09.868Z,11.29
2022-11-17T07:10:38.474Z,11.22
2022-11-17T07:13:06.387Z,11.14
2022-11-17T07:15:33.937Z,11.18
2022-11-17T07:18:01.847Z,11.18
2022-11-17T07:20:29.416Z,11.27
2022-11-17T07:23:00.412Z,11.30
2022-11-17T07:25:28.417Z,11.31
2022-11-17T07:28:00.063Z,11.14
2022-11-17T07:30:27.713Z,11.08
2022-11-17T07:32:55.634Z,11.06
2022-11-17T07:35:23.121Z,11.09
2022-11-17T07:37:51.045Z,11.10
2022-11-17T07:40:18.693Z,11.16
2022-11-17T07:42:50.112Z,11.25
2022-11-17T07:45:18.213Z,11.29
2022-11-17T07:47:52.494Z,11.33
2022-11-17T07:50:20.270Z,11.29
2022-11-17T07:52:52.228Z,11.36
2022-11-17T07:55:20.321Z,11.45
2022-11-17T07:57:53.930Z,11.39
2022-11-17T08:00:21.673Z,11.36
2022-11-17T08:02:49.750Z,11.39
2022-11-17T08:05:18.362Z,11.44
2022-11-17T08:07:54.078Z,11.45
2022-11-17T08:10:22.252Z,11.45
2022-11-17T08:12:56.123Z,11.46
2022-11-17T08:15:23.662Z,11.50
2022-11-17T08:17:57.048Z,11.49
2022-11-17T08:20:26.830Z,11.53
2022-11-17T08:22:56.485Z,11.57
2022-11-17T08:25:26.931Z,11.52
2022-11-17T08:27:58.656Z,11.58
2022-11-17T08:30:27.159Z,11.60
2022-11-17T08:32:55.352Z,11.56
2022-11-17T08:35:25.476Z,11.53
2022-11-17T08:37:54.387Z,11.45
2022-11-17T08:40:22.200Z,11.39
2022-11-17T08:43:00.923Z,11.31
2022-11-17T08:45:28.970Z,11.33
2022-11-17T08:47:57.303Z,11.48
2022-11-17T08:50:25.843Z,11.57
2022-11-17T08:52:53.941Z,11.55
2022-11-17T08:55:21.553Z,11.65
2022-11-17T08:57:49.449Z,11.79
2022-11-17T09:00:19.904Z,11.95
2022-11-17T09:02:47.995Z,12.10
2022-11-17T09:05:15.569Z,12.09
2022-11-17T09:07:43.545Z,12.11
2022-11-17T09:10:11.350Z,12.17
2022-11-17T09:12:39.219Z,12.26
2022-11-17T09:15:07.319Z,12.31
2022-11-17T09:17:35.947Z,12.37
2022-11-17T09:20:03.561Z,12.35
2022-11-17T09:22:49.962Z,12.31
2022-11-17T09:25:17.714Z,12.21
2022-11-17T09:27:45.520Z,12.21
2022-11-17T09:30:13.305Z,12.19
2022-11-17T09:32:41.043Z,12.22
2022-11-17T09:35:09.501Z,12.26
2022-11-17T09:37:37.348Z,12.28
2022-11-17T09:40:05.745Z,12.31
2022-11-17T09:42:40.206Z,12.38
2022-11-17T09:45:39.435Z,12.38
2022-11-17T09:48:40.361Z,12.43
2022-11-17T09:51:13.858Z,12.39
2022-11-17T09:54:49.977Z,12.49
2022-11-17T09:57:54.824Z,12.56
2022-11-17T10:00:24.367Z,12.60
2022-11-17T10:02:54.221Z,12.58
2022-11-17T10:05:40.180Z,12.50
2022-11-17T10:08:13.198Z,12.51
2022-11-17T10:10:51.771Z,12.53
2022-11-17T10:13:36.510Z,12.53
2022-11-17T10:16:13.311Z,12.58
2022-11-17T10:18:40.942Z,12.62
2022-11-17T10:21:09.357Z,12.57
2022-11-17T10:23:46.876Z,12.66
2022-11-17T10:26:16.609Z,12.65
2022-11-17T10:28:44.381Z,12.59
2022-11-17T10:31:18.825Z,12.68
2022-11-17T10:33:50.346Z,12.81
2022-11-17T10:36:30.554Z,12.93
2022-11-17T10:39:00.527Z,13.04
2022-11-17T10:41:42.834Z,13.20
2022-11-17T10:44:23.536Z,13.39
2022-11-17T10:47:08.067Z,13.67
2022-11-17T10:49:40.866Z,13.82
2022-11-17T10:52:19.167Z,13.97
2022-11-17T10:54:46.810Z,14.04
2022-11-17T10:57:23.709Z,14.08
2022-11-17T10:59:57.635Z,14.12
2022-11-17T11:02:36.804Z,14.17
2022-11-17T11:05:17.952Z,14.23
2022-11-17T11:08:33.433Z,14.21
2022-11-17T11:11:44.152Z,14.01
2022-11-17T11:14:42.169Z,13.87
2022-11-17T11:17:14.210Z,13.84
2022-11-17T11:19:46.006Z,13.87
2022-11-17T11:22:57.867Z,13.86
2022-11-17T11:25:41.178Z,13.93
2022-11-17T11:28:48.101Z,14.12
2022-11-17T11:31:44.171Z,14.39
2022-11-17T11:34:44.002Z,14.47
2022-11-17T11:37:14.457Z,14.53
2022-11-17T11:40:15.510Z,14.42
2022-11-17T11:42:58.943Z,14.28
2022-11-17T11:45:58.901Z,14.31
2022-11-17T11:48:36.523Z,14.31
2022-11-17T11:51:35.227Z,14.27
2022-11-17T11:54:25.877Z,14.18
2022-11-17T11:56:54.873Z,14.19
2022-11-17T11:59:50.651Z,14.35
2022-11-17T12:03:01.876Z,14.57
2022-11-17T12:05:51.405Z,14.86
2022-11-17T12:08:45.355Z,15.23
2022-11-17T12:11:34.911Z,15.43
2022-11-17T12:14:06.183Z,15.65
2022-11-17T12:16:36.247Z,15.90
2022-11-17T12:19:51.065Z,16.06
2022-11-17T12:22:30.510Z,16.12
2022-11-17T12:25:33.450Z,16.00
2022-11-17T12:28:38.311Z,16.08
2022-11-17T12:31:25.977Z,16.16
2022-11-17T12:33:53.294Z,16.26
2022-11-17T12:36:30.409Z,16.43
2022-11-17T12:39:07.080Z,16.57
2022-11-17T12:41:49.878Z,16.73
2022-11-17T12:44:38.622Z,16.88
2022-11-17T12:47:20.880Z,16.99
2022-11-17T12:50:35.179Z,17.27
2022-11-17T12:53:26.615Z,17.51
2022-11-17T12:56:23.718Z,17.84
2022-11-17T12:59:24.158Z,18.14
2022-11-17T13:02:20.783Z,18.45
2022-11-17T13:05:18.865Z,18.76
2022-11-17T13:07:46.448Z,18.91
2022-11-17T13:10:30.641Z,19.00
2022-11-17T13:13:25.101Z,18.83
2022-11-17T13:16:00.482Z,18.58
2022-11-17T13:18:33.681Z,18.38
2022-11-17T13:21:02.321Z,18.09
2022-11-17T13:23:33.152Z,17.93
2022-11-17T13:26:16.423Z,17.73
2022-11-17T13:28:45.380Z,17.56
2022-11-17T13:31:23.580Z,17.44
2022-11-17T13:34:18.687Z,17.35
2022-11-17T13:37:00.977Z,17.28
2022-11-17T13:39:29.139Z,17.19
2022-11-17T13:41:58.074Z,17.02
2022-11-17T13:44:28.456Z,16.80
2022-11-17T13:46:56.273Z,16.55
2022-11-17T13:49:37.770Z,16.25
2022-11-17T13:52:37.976Z,15.99
2022-11-17T13:55:15.834Z,15.79
2022-11-17T13:58:30.954Z,15.60
2022-11-17T14:01:00.042Z,15.45
2022-11-17T14:03:36.298Z,15.30
2022-11-17T14:06:08.038Z,15.06
2022-11-17T14:08:38.287Z,14.90
2022-11-17T14:11:24.011Z,14.81
2022-11-17T14:13:58.705Z,14.72
2022-11-17T14:16:42.059Z,14.66
2022-11-17T14:19:15.930Z,14.61
2022-11-17T14:22:29.276Z,14.54
2022-11-17T14:24:59.178Z,14.48
2022-11-17T14:27:32.614Z,14.44
2022-11-17T14:30:00.699Z,14.41
2022-11-17T14:32:28.156Z,14.38
2022-11-17T14:34:56.059Z,14.33
2022-11-17T14:37:25.125Z,14.32
2022-11-17T14:39:52.886Z,14.28
2022-11-17T14:42:20.433Z,14.25
2022-11-17T14:44:48.207Z,14.21
2022-11-17T14:47:15.725Z,14.18
2022-11-17T14:49:43.534Z,14.15
2022-11-17T14:52:11.047Z,14.10
2022-11-17T14:54:38.929Z,14.04
2022-11-17T14:57:06.373Z,13.97
2022-11-17T14:59:34.249Z,13.86
2022-11-17T15:02:02.158Z,13.78
2022-11-17T15:07:17.751Z,13.58
2022-11-17T15:09:45.675Z,13.49
2022-11-17T15:12:13.120Z,13.42
2022-11-17T15:14:40.873Z,13.32
2022-11-17T15:17:12.920Z,13.24
2022-11-17T15:19:42.619Z,13.17
2022-11-17T15:22:12.953Z,13.10
2022-11-17T15:24:41.232Z,13.02
2022-11-17T15:27:09.766Z,12.94
2022-11-17T15:29:37.713Z,12.87
2022-11-17T15:32:06.041Z,12.81
2022-11-17T15:34:35.544Z,12.78
2022-11-17T15:37:03.189Z,12.72
2022-11-17T15:39:38.580Z,12.68
2022-11-17T15:42:06.198Z,12.63
2022-11-17T15:44:34.554Z,12.61
2022-11-17T15:47:02.065Z,12.56
2022-11-17T15:49:29.907Z,12.53
2022-11-17T15:51:57.405Z,12.49
2022-11-17T15:54:25.277Z,12.45
2022-11-17T15:56:52.864Z,12.44
2022-11-17T15:59:20.835Z,12.43
2022-11-17T16:01:48.611Z,12.38
2022-11-17T16:04:16.772Z,12.33
2022-11-17T16:06:47.045Z,12.34
2022-11-17T16:09:15.870Z,12.30
2022-11-17T16:11:44.111Z,12.29
2022-11-17T16:14:12.081Z,12.30
2022-11-17T16:16:40.002Z,12.28
2022-11-17T16:19:08.073Z,12.29
2022-11-17T16:21:35.621Z,12.28
2022-11-17T16:24:03.788Z,12.25
2022-11-17T16:26:31.910Z,12.24
2022-11-17T16:29:04.148Z,12.21
2022-11-17T16:31:35.071Z,12.18
2022-11-17T16:34:06.517Z,12.18
2022-11-17T16:36:37.930Z,12.17
2022-11-17T16:39:08.903Z,12.17
2022-11-17T16:41:40.224Z,12.17
2022-11-17T16:44:14.155Z,12.16
2022-11-17T16:46:44.577Z,12.18
2022-11-17T16:49:18.922Z,12.19
2022-11-17T16:51:52.758Z,12.18
2022-11-17T16:54:21.479Z,12.16
2022-11-17T16:56:49.878Z,12.18
2022-11-17T16:59:18.067Z,12.16
2022-11-17T17:01:46.252Z,12.17
2022-11-17T17:04:17.537Z,12.17
2022-11-17T17:06:45.957Z,12.17
2022-11-17T17:09:15.659Z,12.18
2022-11-17T17:11:43.509Z,12.16
2022-11-17T17:14:14.666Z,12.18
2022-11-17T17:16:42.930Z,12.16
2022-11-17T17:19:13.052Z,12.16
2022-11-17T17:21:41.781Z,12.16
2022-11-17T17:24:10.821Z,12.19
2022-11-17T17:26:39.854Z,12.21
2022-11-17T17:29:08.920Z,12.18
2022-11-17T17:31:39.844Z,12.22
2022-11-17T17:34:10.382Z,12.22
2022-11-17T17:36:38.787Z,12.24
2022-11-17T17:39:07.055Z,12.26
2022-11-17T17:41:40.383Z,12.29
2022-11-17T17:44:13.353Z,12.32
2022-11-17T17:46:42.867Z,12.32
2022-11-17T17:49:11.722Z,12.37
2022-11-17T17:51:44.163Z,12.38
2022-11-17T17:54:21.448Z,12.41
2022-11-17T17:56:49.087Z,12.43
2022-11-17T17:59:17.565Z,12.46
2022-11-17T18:01:49.387Z,12.48
2022-11-17T18:04:17.539Z,12.48
2022-11-17T18:06:52.111Z,12.49
2022-11-17T18:09:21.025Z,12.49
2022-11-17T18:11:51.294Z,12.52
2022-11-17T18:14:25.047Z,12.51
2022-11-17T18:16:53.866Z,12.51
2022-11-17T18:19:24.868Z,12.51
2022-11-17T18:21:56.069Z,12.51
2022-11-17T18:24:24.049Z,12.49
2022-11-17T18:26:54.069Z,12.49
2022-11-17T18:29:22.756Z,12.50
2022-11-17T18:31:50.660Z,12.46
2022-11-17T18:34:24.299Z,12.45
2022-11-17T18:36:55.715Z,12.45
2022-11-17T18:39:24.586Z,12.45
2022-11-17T18:41:52.077Z,12.45
2022-11-17T18:44:20.002Z,12.46
2022-11-17T18:46:48.074Z,12.44
2022-11-17T18:49:16.524Z,12.42
2022-11-17T18:51:44.414Z,12.40
2022-11-17T18:54:13.076Z,12.41
2022-11-17T18:56:40.790Z,12.43
2022-11-17T18:59:11.950Z,12.44
2022-11-17T19:01:43.343Z,12.46
2022-11-17T19:04:15.305Z,12.49
2022-11-17T19:06:42.997Z,12.50
2022-11-17T19:09:11.520Z,12.49
2022-11-17T19:11:39.498Z,12.48
2022-11-17T19:14:08.088Z,12.47
2022-11-17T19:16:44.477Z,12.45
2022-11-17T19:19:14.253Z,12.44
2022-11-17T19:21:42.098Z,12.43
2022-11-17T19:24:09.943Z,12.41
2022-11-17T19:26:37.551Z,12.41
2022-11-17T19:29:15.964Z,12.43
2022-11-17T19:31:45.215Z,12.45
2022-11-17T19:34:14.238Z,12.47
2022-11-17T19:36:42.055Z,12.50
2022-11-17T19:39:13.042Z,12.52
2022-11-17T19:41:40.705Z,12.57
2022-11-17T19:44:09.527Z,12.60
2022-11-17T19:46:37.804Z,12.62
2022-11-17T19:49:07.694Z,12.65
2022-11-17T19:51:37.108Z,12.65
2022-11-17T19:54:08.507Z,12.66
2022-11-17T19:56:36.922Z,12.67
2022-11-17T19:59:06.315Z,12.73
2022-11-17T20:01:34.602Z,12.78
2022-11-17T20:04:02.934Z,12.79
2022-11-17T20:06:37.662Z,12.81
2022-11-17T20:09:11.808Z,12.83
2022-11-17T20:11:39.976Z,12.84
2022-11-17T20:14:08.100Z,12.86
2022-11-17T20:16:36.899Z,12.88
2022-11-17T20:19:05.353Z,12.89
2022-11-17T20:21:33.755Z,12.90
2022-11-17T20:24:02.334Z,12.90
2022-11-17T20:26:33.341Z,12.91
2022-11-17T20:29:02.646Z,12.90
2022-11-17T20:31:35.008Z,12.91
2022-11-17T20:34:05.486Z,12.93
2022-11-17T20:36:34.625Z,12.94
2022-11-17T20:39:05.020Z,12.96
2022-11-17T20:41:33.430Z,12.93
2022-11-17T20:44:03.597Z,12.97
2022-11-17T20:46:31.382Z,12.98
2022-11-17T20:48:59.295Z,13.03
2022-11-17T20:51:27.119Z,13.07
2022-11-17T20:53:55.214Z,13.11
2022-11-17T20:56:22.793Z,13.14
2022-11-17T20:58:53.683Z,13.16
2022-11-17T21:01:24.066Z,13.20
2022-11-17T21:03:52.620Z,13.23
2022-11-17T21:06:24.710Z,13.25
2022-11-17T21:08:53.179Z,13.27
2022-11-17T21:11:42.646Z,13.27
2022-11-17T21:14:13.604Z,13.29
2022-11-17T21:16:45.651Z,13.28
2022-11-17T21:19:14.818Z,13.31
2022-11-17T21:21:44.127Z,13.31
2022-11-17T21:24:12.833Z,13.32
2022-11-17T21:26:42.350Z,13.33
2022-11-17T21:29:10.375Z,13.34
2022-11-17T21:31:38.830Z,13.33
2022-11-17T21:34:07.985Z,13.31
2022-11-17T21:36:36.205Z,13.25
2022-11-17T21:39:04.843Z,13.22
2022-11-17T21:41:37.921Z,13.19
2022-11-17T21:44:05.916Z,13.17
2022-11-17T21:46:36.347Z,13.14
2022-11-17T21:49:05.328Z,13.08
2022-11-17T21:51:35.389Z,13.03
2022-11-17T21:54:09.455Z,12.94
2022-11-17T21:56:38.355Z,12.90
2022-11-17T21:59:12.716Z,12.82
2022-11-17T22:01:40.618Z,12.78
2022-11-17T22:04:10.384Z,12.77
2022-11-17T22:06:39.270Z,12.78
2022-11-17T22:09:07.652Z,12.79
2022-11-17T22:11:44.246Z,12.82
2022-11-17T22:14:25.376Z,12.85
2022-11-17T22:16:59.729Z,12.86
2022-11-17T22:19:58.929Z,12.87
2022-11-17T22:22:42.405Z,12.90
2022-11-17T22:25:43.492Z,12.91
2022-11-17T22:28:28.580Z,12.94
2022-11-17T22:31:33.637Z,12.96
2022-11-17T22:34:09.593Z,12.95
2022-11-17T22:36:57.735Z,12.92
2022-11-17T22:39:35.442Z,12.90
2022-11-17T22:42:20.990Z,12.86
2022-11-17T22:44:53.689Z,12.84
2022-11-17T22:47:21.693Z,12.84
2022-11-17T22:49:49.302Z,12.85
2022-11-17T22:52:17.256Z,12.85
2022-11-17T22:54:44.787Z,12.83
2022-11-17T22:57:12.694Z,12.83
2022-11-17T22:59:40.490Z,12.81
2022-11-17T23:02:08.316Z,12.79
2022-11-17T23:08:08.204Z,12.74
2022-11-17T23:10:41.931Z,12.71
2022-11-17T23:13:11.421Z,12.68
2022-11-17T23:15:44.035Z,12.68
2022-11-17T23:18:14.509Z,12.68
2022-11-17T23:20:43.510Z,12.65
2022-11-17T23:23:11.953Z,12.63
2022-11-17T23:25:41.008Z,12.59
2022-11-17T23:28:10.407Z,12.57
2022-11-17T23:30:38.598Z,12.54
2022-11-17T23:33:06.563Z,12.54
2022-11-17T23:35:34.776Z,12.53
2022-11-17T23:38:02.770Z,12.54
2022-11-17T23:40:30.349Z,12.53
2022-11-17T23:42:58.329Z,12.51
2022-11-17T23:45:25.935Z,12.47
2022-11-17T23:47:54.045Z,12.46
2022-11-17T23:50:21.524Z,12.44
2022-11-17T23:52:49.346Z,12.41
2022-11-17T23:55:16.866Z,12.40
2022-11-17T23:57:44.794Z,12.40
